createdAt,value
2018-05-26T00:00:30.069Z,96.30
2018-05-26T00:02:58.335Z,96.50
2018-05-26T00:05:25.809Z,96.40
2018-05-26T00:07:54.047Z,96.70
2018-05-26T00:10:21.536Z,96.70
2018-05-26T00:12:49.777Z,97.00
2018-05-26T00:15:17.267Z,97.00
2018-05-26T00:17:45.501Z,97.20
2018-05-26T00:20:13.021Z,97.10
2018-05-26T00:22:40.491Z,97.10
2018-05-26T00:25:07.964Z,97.00
2018-05-26T00:27:35.453Z,97.10
2018-05-26T00:30:03.698Z,97.50
2018-05-26T00:32:31.181Z,97.40
2018-05-26T00:34:58.650Z,97.60
2018-05-26T00:37:26.918Z,97.70
2018-05-26T00:39:55.151Z,97.80
2018-05-26T00:42:22.621Z,97.70
2018-05-26T00:44:50.113Z,98.10
2018-05-26T00:47:18.353Z,98.40
2018-05-26T00:49:45.840Z,98.30
2018-05-26T00:52:14.077Z,98.30
2018-05-26T00:54:41.565Z,98.20
2018-05-26T00:57:09.801Z,98.40
2018-05-26T00:59:37.277Z,98.40
2018-05-26T01:02:04.770Z,98.50
2018-05-26T01:04:32.237Z,98.50
2018-05-26T01:07:00.490Z,98.60
2018-05-26T01:09:28.726Z,98.60
2018-05-26T01:11:56.213Z,98.60
2018-05-26T01:14:24.452Z,98.90
2018-05-26T01:16:51.938Z,98.90
2018-05-26T01:19:20.429Z,99.00
2018-05-26T01:21:48.689Z,99.30
2018-05-26T01:24:16.933Z,99.50
2018-05-26T01:26:44.425Z,99.40
2018-05-26T01:29:12.664Z,99.70
2018-05-26T01:31:40.137Z,99.70
2018-05-26T01:34:07.677Z,99.90
2018-05-26T01:36:35.151Z,99.90
2018-05-26T01:39:02.642Z,99.90
2018-05-26T01:41:30.111Z,99.90
2018-05-26T01:43:57.605Z,99.90
2018-05-26T01:46:25.080Z,99.90
2018-05-26T01:48:52.569Z,99.90
2018-05-26T01:51:20.041Z,99.90
2018-05-26T01:53:47.857Z,99.90
2018-05-26T01:56:15.325Z,99.90
2018-05-26T01:58:43.576Z,99.90
2018-05-26T02:01:11.069Z,99.90
2018-05-26T02:03:38.538Z,99.90
2018-05-26T02:06:06.025Z,99.90
2018-05-26T02:08:33.497Z,99.90
2018-05-26T02:11:00.983Z,99.90
2018-05-26T02:13:29.221Z,99.90
2018-05-26T02:15:56.715Z,99.90
2018-05-26T02:18:24.958Z,99.90
2018-05-26T02:20:52.433Z,99.90
2018-05-26T02:23:20.685Z,99.90
2018-05-26T02:25:48.161Z,99.90
2018-05-26T02:28:16.417Z,99.90
2018-05-26T02:30:45.397Z,99.90
2018-05-26T02:33:12.883Z,99.90
2018-05-26T02:35:41.129Z,99.90
2018-05-26T02:38:08.617Z,99.90
2018-05-26T02:40:36.849Z,99.90
2018-05-26T02:43:04.337Z,99.90
2018-05-26T02:45:32.579Z,99.90
2018-05-26T02:48:00.072Z,99.90
2018-05-26T02:50:28.309Z,99.90
2018-05-26T02:52:55.825Z,99.90
2018-05-26T02:55:23.301Z,99.90
2018-05-26T02:57:50.773Z,99.90
2018-05-26T03:00:19.025Z,99.90
2018-05-26T03:02:46.537Z,99.90
2018-05-26T03:05:20.398Z,99.90
2018-05-26T03:07:53.741Z,99.90
2018-05-26T03:10:27.642Z,99.90
2018-05-26T03:13:00.770Z,99.90
2018-05-26T03:15:27.766Z,99.90
2018-05-26T03:17:59.201Z,99.90
2018-05-26T03:20:26.689Z,99.90
2018-05-26T03:22:54.926Z,99.90
2018-05-26T03:25:22.415Z,99.90
2018-05-26T03:27:50.652Z,99.90
2018-05-26T03:30:18.139Z,99.90
2018-05-26T03:32:46.377Z,99.90
2018-05-26T03:35:13.861Z,99.90
2018-05-26T03:37:41.329Z,99.90
2018-05-26T03:40:09.090Z,99.90
2018-05-26T03:42:36.561Z,99.90
2018-05-26T03:45:04.801Z,99.90
2018-05-26T03:47:32.285Z,99.90
2018-05-26T03:50:00.526Z,99.90
2018-05-26T03:52:28.780Z,99.90
2018-05-26T03:58:19.974Z,99.90
2018-05-26T04:00:47.449Z,99.90
2018-05-26T04:03:14.933Z,99.90
2018-05-26T04:05:42.456Z,99.90
2018-05-26T04:08:09.906Z,99.90
2018-05-26T04:10:37.386Z,99.90
2018-05-26T04:13:04.877Z,99.90
2018-05-26T04:15:32.350Z,99.90
2018-05-26T04:20:35.338Z,99.90
2018-05-26T04:23:02.805Z,99.90
2018-05-26T04:25:31.060Z,99.90
2018-05-26T04:27:58.534Z,99.90
2018-05-26T04:30:26.023Z,99.90
2018-05-26T04:32:53.494Z,99.90
2018-05-26T04:35:21.030Z,99.90
2018-05-26T04:37:48.469Z,99.90
2018-05-26T04:40:16.104Z,99.90
2018-05-26T04:42:43.572Z,99.90
2018-05-26T04:45:11.050Z,99.90
2018-05-26T04:47:39.296Z,99.90
2018-05-26T04:50:06.769Z,99.90
2018-05-26T04:52:35.029Z,99.90
2018-05-26T04:55:02.506Z,99.90
2018-05-26T04:57:30.009Z,99.90
2018-05-26T04:59:57.485Z,99.90
2018-05-26T05:02:24.968Z,99.90
2018-05-26T05:04:53.205Z,99.90
2018-05-26T05:07:20.689Z,99.90
2018-05-26T05:09:48.928Z,99.90
2018-05-26T05:12:16.397Z,99.90
2018-05-26T05:14:43.880Z,99.90
2018-05-26T05:17:12.122Z,99.70
2018-05-26T05:19:39.916Z,99.50
2018-05-26T05:22:08.157Z,99.40
2018-05-26T05:24:35.640Z,99.30
2018-05-26T05:27:03.881Z,97.30
2018-05-26T05:29:31.371Z,97.20
2018-05-26T05:31:59.611Z,94.40
2018-05-26T05:34:27.105Z,94.30
2018-05-26T05:36:55.352Z,92.70
2018-05-26T05:39:22.836Z,92.70
2018-05-26T05:41:51.077Z,90.60
2018-05-26T05:44:18.558Z,90.50
2018-05-26T05:46:46.028Z,90.20
2018-05-26T05:49:14.541Z,84.50
2018-05-26T05:51:42.014Z,84.40
2018-05-26T05:54:09.481Z,85.70
2018-05-26T05:56:37.010Z,86.80
2018-05-26T05:59:04.617Z,85.40
2018-05-26T06:01:31.977Z,83.80
2018-05-26T06:04:00.214Z,80.20
2018-05-26T06:06:27.702Z,80.20
2018-05-26T06:08:55.169Z,80.60
2018-05-26T06:11:23.417Z,81.00
2018-05-26T06:13:50.885Z,81.00
2018-05-26T06:16:18.369Z,79.90
2018-05-26T06:18:45.840Z,79.20
2018-05-26T06:21:13.324Z,77.70
2018-05-26T06:23:40.793Z,77.10
2018-05-26T06:26:09.269Z,76.90
2018-05-26T06:28:36.741Z,75.90
2018-05-26T06:31:04.214Z,73.90
2018-05-26T06:33:32.469Z,72.80
2018-05-26T06:35:59.999Z,72.70
2018-05-26T06:38:28.207Z,71.30
2018-05-26T06:40:56.453Z,70.90
2018-05-26T06:43:23.937Z,70.90
2018-05-26T06:45:51.405Z,71.30
2018-05-26T06:48:19.978Z,70.90
2018-05-26T06:50:48.274Z,72.00
2018-05-26T06:53:15.706Z,72.00
2018-05-26T06:55:43.186Z,72.30
2018-05-26T06:58:10.653Z,70.10
2018-05-26T07:00:38.137Z,66.20
2018-05-26T07:03:05.601Z,63.70
2018-05-26T07:05:33.088Z,65.40
2018-05-26T07:08:01.328Z,61.20
2018-05-26T07:10:28.809Z,61.10
2018-05-26T07:12:56.273Z,59.70
2018-05-26T07:15:24.526Z,59.50
2018-05-26T07:17:52.031Z,59.40
2018-05-26T07:20:19.501Z,61.80
2018-05-26T07:22:46.985Z,61.40
2018-05-26T07:25:14.454Z,57.90
2018-05-26T07:27:41.946Z,58.70
2018-05-26T07:30:09.409Z,57.10
2018-05-26T07:32:36.901Z,56.70
2018-05-26T07:35:04.366Z,56.00
2018-05-26T07:37:31.853Z,54.20
2018-05-26T07:40:00.089Z,55.40
2018-05-26T07:42:28.494Z,55.30
2018-05-26T07:44:55.962Z,55.10
2018-05-26T07:47:24.205Z,52.30
2018-05-26T07:49:51.673Z,52.20
2018-05-26T07:52:19.153Z,52.40
2018-05-26T07:54:47.381Z,51.80
2018-05-26T07:57:14.861Z,51.80
2018-05-26T07:59:42.331Z,51.10
2018-05-26T08:02:10.573Z,50.70
2018-05-26T08:04:38.053Z,50.70
2018-05-26T08:07:05.534Z,51.10
2018-05-26T08:09:33.036Z,47.50
2018-05-26T08:12:00.506Z,47.00
2018-05-26T08:14:27.981Z,45.80
2018-05-26T08:21:53.094Z,44.20
2018-05-26T08:24:20.862Z,41.50
2018-05-26T08:26:48.328Z,41.80
2018-05-26T08:29:15.804Z,41.50
2018-05-26T08:31:43.302Z,40.20
2018-05-26T08:34:10.770Z,41.60
2018-05-26T08:36:38.254Z,38.00
2018-05-26T08:39:06.494Z,40.20
2018-05-26T08:41:33.976Z,40.00
2018-05-26T08:44:01.441Z,40.70
2018-05-26T08:46:29.693Z,41.70
2018-05-26T08:48:57.164Z,41.60
2018-05-26T08:51:25.421Z,42.80
2018-05-26T08:53:52.885Z,42.70
2018-05-26T08:56:20.349Z,43.20
2018-05-26T08:58:48.612Z,41.40
2018-05-26T09:01:16.081Z,41.40
2018-05-26T09:03:44.343Z,41.50
2018-05-26T09:06:11.807Z,41.40
2018-05-26T09:08:39.289Z,40.80
2018-05-26T09:11:07.525Z,41.30
2018-05-26T09:13:35.024Z,41.30
2018-05-26T09:16:02.498Z,40.60
2018-05-26T09:18:29.985Z,41.40
2018-05-26T09:20:57.452Z,41.00
2018-05-26T09:23:25.860Z,40.40
2018-05-26T09:25:54.105Z,40.70
2018-05-26T09:28:21.571Z,40.70
2018-05-26T09:30:49.050Z,40.70
2018-05-26T09:33:17.302Z,39.90
2018-05-26T09:35:44.781Z,40.00
2018-05-26T09:38:12.245Z,41.50
2018-05-26T09:40:39.725Z,41.60
2018-05-26T09:43:07.193Z,39.20
2018-05-26T09:45:34.681Z,39.80
2018-05-26T09:48:02.167Z,39.00
2018-05-26T09:50:30.413Z,36.70
2018-05-26T09:52:58.653Z,36.50
2018-05-26T09:55:26.121Z,36.10
2018-05-26T09:57:53.609Z,34.90
2018-05-26T10:00:21.841Z,37.40
2018-05-26T10:02:49.329Z,37.50
2018-05-26T10:05:16.789Z,38.00
2018-05-26T10:07:45.077Z,38.60
2018-05-26T10:10:13.314Z,37.60
2018-05-26T10:12:40.825Z,37.50
2018-05-26T10:15:08.301Z,37.20
2018-05-26T10:17:36.113Z,36.90
2018-05-26T10:20:04.345Z,36.50
2018-05-26T10:22:32.577Z,37.10
2018-05-26T10:25:00.825Z,38.70
2018-05-26T10:27:28.297Z,38.10
2018-05-26T10:29:56.573Z,35.40
2018-05-26T10:32:24.386Z,35.30
2018-05-26T10:34:51.862Z,35.50
2018-05-26T10:37:19.337Z,34.10
2018-05-26T10:39:46.860Z,31.10
2018-05-26T10:42:14.325Z,32.70
2018-05-26T10:44:42.560Z,34.70
2018-05-26T10:47:10.052Z,35.30
2018-05-26T10:49:37.525Z,35.20
2018-05-26T10:52:05.012Z,34.70
2018-05-26T10:54:32.481Z,33.60
2018-05-26T10:56:59.981Z,33.90
2018-05-26T10:59:27.445Z,33.60
2018-05-26T11:01:54.909Z,32.20
2018-05-26T11:04:22.424Z,29.70
2018-05-26T11:06:49.870Z,28.80
2018-05-26T11:09:17.349Z,28.40
2018-05-26T11:11:44.816Z,31.80
2018-05-26T11:14:12.309Z,31.30
2018-05-26T11:16:40.541Z,29.90
2018-05-26T11:19:09.527Z,29.80
2018-05-26T11:21:37.023Z,29.40
2018-05-26T11:24:05.575Z,30.20
2018-05-26T11:26:32.745Z,30.20
2018-05-26T11:29:01.029Z,30.00
2018-05-26T11:31:28.493Z,30.00
2018-05-26T11:33:55.966Z,28.80
2018-05-26T11:36:23.433Z,28.40
2018-05-26T11:38:50.916Z,29.40
2018-05-26T11:41:18.385Z,29.10
2018-05-26T11:43:45.873Z,28.80
2018-05-26T11:46:13.348Z,29.20
2018-05-26T11:48:40.837Z,28.70
2018-05-26T11:51:08.305Z,28.90
2018-05-26T11:53:35.769Z,29.50
2018-05-26T11:56:03.265Z,29.40
2018-05-26T11:58:30.750Z,29.00
2018-05-26T12:00:58.245Z,29.20
2018-05-26T12:03:25.709Z,28.50
2018-05-26T12:05:53.970Z,27.60
2018-05-26T12:08:21.441Z,27.50
2018-05-26T12:10:49.691Z,29.40
2018-05-26T12:13:17.167Z,29.30
2018-05-26T12:15:45.409Z,29.70
2018-05-26T12:18:12.896Z,29.70
2018-05-26T12:20:41.133Z,28.00
2018-05-26T12:23:08.621Z,28.00
2018-05-26T12:25:36.863Z,28.10
2018-05-26T12:28:04.329Z,28.00
2018-05-26T12:30:31.813Z,28.00
2018-05-26T12:33:00.049Z,30.00
2018-05-26T12:47:51.660Z,30.00
2018-05-26T12:50:19.132Z,28.70
2018-05-26T12:52:47.381Z,28.60
2018-05-26T12:55:14.852Z,28.50
2018-05-26T12:57:42.347Z,28.50
2018-05-26T13:00:09.806Z,30.00
2018-05-26T13:02:37.273Z,29.90
2018-05-26T13:05:04.754Z,29.50
2018-05-26T13:07:32.221Z,28.70
2018-05-26T13:09:59.703Z,28.60
2018-05-26T13:12:28.018Z,30.00
2018-05-26T13:14:55.506Z,30.00
2018-05-26T13:17:22.973Z,30.60
2018-05-26T13:19:50.441Z,29.60
2018-05-26T13:22:18.690Z,28.70
2018-05-26T13:24:46.153Z,28.60
2018-05-26T13:27:13.635Z,29.40
2018-05-26T13:29:41.880Z,28.60
2018-05-26T13:32:09.360Z,28.50
2018-05-26T13:34:37.598Z,29.10
2018-05-26T13:37:05.069Z,29.00
2018-05-26T13:39:32.547Z,29.20
2018-05-26T13:42:00.793Z,28.80
2018-05-26T13:44:28.277Z,28.70
2018-05-26T13:46:56.511Z,29.30
2018-05-26T13:49:24.011Z,29.20
2018-05-26T13:51:52.241Z,29.30
2018-05-26T13:54:19.704Z,29.80
2018-05-26T13:56:47.185Z,29.10
2018-05-26T13:59:15.418Z,30.70
2018-05-26T14:01:42.902Z,30.10
2018-05-26T14:04:10.373Z,29.60
2018-05-26T14:06:38.684Z,30.10
2018-05-26T14:09:06.161Z,30.00
2018-05-26T14:11:33.650Z,29.90
2018-05-26T14:14:01.115Z,30.10
2018-05-26T14:23:55.837Z,32.20
2018-05-26T14:28:52.552Z,31.80
2018-05-26T14:31:20.017Z,32.70
2018-05-26T14:33:48.249Z,33.30
2018-05-26T14:36:16.517Z,34.00
2018-05-26T14:38:43.976Z,34.00
2018-05-26T14:41:12.222Z,34.60
2018-05-26T14:43:39.689Z,34.60
2018-05-26T14:46:07.174Z,34.60
2018-05-26T14:48:34.645Z,33.10
2018-05-26T14:51:02.118Z,32.10
2018-05-26T14:53:29.598Z,32.30
2018-05-26T14:55:57.069Z,32.40
2018-05-26T14:58:25.488Z,31.80
2018-05-26T15:00:52.953Z,31.80
2018-05-26T15:03:20.475Z,30.90
2018-05-26T15:05:48.711Z,31.10
2018-05-26T15:08:16.176Z,30.90
2018-05-26T15:10:43.661Z,30.70
2018-05-26T15:13:11.960Z,29.70
2018-05-26T15:15:39.389Z,29.70
2018-05-26T15:18:07.621Z,30.30
2018-05-26T15:20:35.109Z,30.30
2018-05-26T15:23:03.341Z,31.30
2018-05-26T15:25:31.592Z,31.50
2018-05-26T15:27:59.065Z,31.50
2018-05-26T15:30:26.530Z,31.50
2018-05-26T15:32:54.013Z,32.30
2018-05-26T15:35:21.481Z,32.70
2018-05-26T15:37:49.728Z,33.00
2018-05-26T15:40:17.248Z,33.00
2018-05-26T15:42:44.737Z,32.70
2018-05-26T15:45:12.197Z,34.00
2018-05-26T15:47:39.670Z,33.20
2018-05-26T15:50:07.153Z,33.90
2018-05-26T15:52:34.730Z,33.70
2018-05-26T15:55:02.214Z,33.50
2018-05-26T15:57:29.681Z,34.50
2018-05-26T15:59:57.226Z,35.10
2018-05-26T16:02:24.665Z,34.40
2018-05-26T16:04:52.137Z,33.70
2018-05-26T16:07:19.622Z,33.50
2018-05-26T16:09:47.087Z,35.60
2018-05-26T16:12:15.696Z,36.90
2018-05-26T16:14:43.901Z,37.70
2018-05-26T16:17:11.401Z,37.70
2018-05-26T16:19:39.640Z,38.70
2018-05-26T16:22:07.106Z,38.80
2018-05-26T16:24:34.589Z,37.90
2018-05-26T16:27:02.824Z,38.70
2018-05-26T16:29:30.328Z,38.70
2018-05-26T16:31:58.553Z,39.20
2018-05-26T16:34:26.034Z,39.20
2018-05-26T16:36:53.501Z,40.70
2018-05-26T16:39:21.735Z,40.30
2018-05-26T16:41:49.217Z,40.30
2018-05-26T16:44:16.689Z,40.20
2018-05-26T16:46:44.948Z,41.20
2018-05-26T16:49:12.415Z,41.20
2018-05-26T16:51:40.669Z,41.60
2018-05-26T16:54:08.143Z,41.60
2018-05-26T16:59:11.078Z,42.00
2018-05-26T17:01:38.545Z,42.00
2018-05-26T17:04:06.026Z,41.20
2018-05-26T17:06:33.506Z,40.80
2018-05-26T17:09:01.769Z,41.30
2018-05-26T17:11:29.241Z,41.30
2018-05-26T17:13:57.473Z,41.20
2018-05-26T17:16:25.773Z,40.90
2018-05-26T17:18:53.202Z,40.80
2018-05-26T17:21:20.682Z,40.60
2018-05-26T17:23:48.150Z,40.80
2018-05-26T17:26:16.409Z,41.60
2018-05-26T17:28:43.872Z,41.60
2018-05-26T17:31:11.341Z,40.70
2018-05-26T17:33:39.589Z,42.10
2018-05-26T17:36:07.077Z,42.10
2018-05-26T17:38:35.321Z,42.50
2018-05-26T17:41:02.789Z,42.40
2018-05-26T17:43:30.272Z,42.80
2018-05-26T17:45:57.745Z,42.60
2018-05-26T17:48:25.208Z,43.20
2018-05-26T17:50:52.695Z,44.00
2018-05-26T17:55:55.614Z,43.30
2018-05-26T17:58:23.076Z,43.30
2018-05-26T18:00:51.333Z,44.50
2018-05-26T18:03:18.809Z,44.60
2018-05-26T18:05:47.042Z,45.10
2018-05-26T18:08:15.225Z,45.10
2018-05-26T18:10:42.702Z,45.60
2018-05-26T18:13:11.118Z,46.10
2018-05-26T18:15:38.593Z,46.90
2018-05-26T18:18:06.074Z,47.30
2018-05-26T18:20:33.584Z,47.60
2018-05-26T18:23:01.049Z,47.60
2018-05-26T18:25:28.537Z,47.40
2018-05-26T18:27:56.009Z,47.10
2018-05-26T18:30:23.492Z,47.20
2018-05-26T18:32:51.793Z,47.40
2018-05-26T18:35:19.256Z,47.50
2018-05-26T18:37:46.724Z,47.90
2018-05-26T18:40:14.197Z,48.60
2018-05-26T18:42:41.677Z,48.80
2018-05-26T18:45:09.917Z,49.60
2018-05-26T18:47:37.443Z,49.60
2018-05-26T18:50:04.917Z,50.20
2018-05-26T18:52:32.407Z,50.20
2018-05-26T18:54:59.877Z,50.80
2018-05-26T18:57:28.134Z,51.40
2018-05-26T18:59:55.608Z,51.40
2018-05-26T19:02:23.845Z,52.30
2018-05-26T19:04:51.325Z,52.30
2018-05-26T19:07:18.789Z,52.80
2018-05-26T19:09:47.038Z,53.60
2018-05-26T19:12:14.505Z,53.60
2018-05-26T19:14:42.277Z,53.80
2018-05-26T19:17:10.392Z,54.40
2018-05-26T19:19:37.869Z,54.50
2018-05-26T19:22:05.362Z,54.80
2018-05-26T19:24:33.621Z,56.00
2018-05-26T19:27:01.107Z,55.90
2018-05-26T19:29:29.347Z,56.90
2018-05-26T19:31:56.833Z,56.90
2018-05-26T19:34:25.464Z,57.10
2018-05-26T19:36:52.936Z,57.10
2018-05-26T19:39:20.428Z,57.40
2018-05-26T19:41:48.676Z,58.40
2018-05-26T19:44:16.169Z,58.40
2018-05-26T19:46:43.649Z,58.80
2018-05-26T19:49:11.140Z,59.20
2018-05-26T19:51:38.609Z,59.80
2018-05-26T19:54:06.082Z,59.90
2018-05-26T19:56:34.345Z,60.50
2018-05-26T19:59:01.813Z,60.50
2018-05-26T20:01:30.069Z,61.10
2018-05-26T20:03:57.541Z,61.10
2018-05-26T20:06:25.797Z,62.10
2018-05-26T20:08:53.270Z,62.10
2018-05-26T20:11:21.510Z,62.50
2018-05-26T20:13:49.134Z,62.40
2018-05-26T20:16:16.610Z,62.70
2018-05-26T20:18:44.119Z,63.00
2018-05-26T20:21:12.729Z,63.80
2018-05-26T20:23:40.241Z,63.80
2018-05-26T20:26:07.743Z,64.20
2018-05-26T20:28:35.210Z,64.30
2018-05-26T20:31:02.693Z,64.40
2018-05-26T20:33:30.165Z,64.80
2018-05-26T20:35:57.663Z,65.20
2018-05-26T20:38:25.141Z,66.20
2018-05-26T20:40:52.626Z,66.10
2018-05-26T20:43:20.180Z,66.30
2018-05-26T20:45:47.678Z,66.70
2018-05-26T20:48:15.173Z,66.80
2018-05-26T20:50:42.744Z,67.40
2018-05-26T20:53:10.291Z,67.90
2018-05-26T20:55:37.893Z,68.20
2018-05-26T20:58:06.468Z,68.70
2018-05-26T21:00:34.705Z,68.80
2018-05-26T21:03:02.173Z,68.70
2018-05-26T21:05:29.686Z,69.30
2018-05-26T21:07:57.157Z,70.30
2018-05-26T21:10:24.644Z,70.50
2018-05-26T21:12:52.160Z,70.70
2018-05-26T21:15:19.980Z,70.80
2018-05-26T21:17:47.445Z,71.10
2018-05-26T21:20:15.694Z,71.80
2018-05-26T21:22:43.174Z,71.70
2018-05-26T21:25:11.485Z,72.30
2018-05-26T21:27:39.094Z,72.30
2018-05-26T21:30:06.514Z,72.30
2018-05-26T21:32:34.056Z,73.00
2018-05-26T21:35:01.538Z,72.70
2018-05-26T21:37:29.094Z,73.10
2018-05-26T21:39:56.565Z,73.10
2018-05-26T21:42:24.042Z,73.30
2018-05-26T21:44:52.293Z,73.70
2018-05-26T21:47:19.773Z,73.70
2018-05-26T21:49:48.049Z,74.30
2018-05-26T21:52:16.301Z,74.80
2018-05-26T21:54:43.812Z,74.80
2018-05-26T21:57:11.277Z,75.00
2018-05-26T21:59:38.744Z,75.70
2018-05-26T22:02:06.239Z,75.80
2018-05-26T22:04:33.708Z,75.90
2018-05-26T22:07:01.233Z,77.00
2018-05-26T22:09:28.705Z,76.70
2018-05-26T22:11:56.193Z,77.40
2018-05-26T22:14:23.723Z,78.20
2018-05-26T22:16:51.148Z,78.50
2018-05-26T22:19:18.638Z,78.60
2018-05-26T22:21:46.113Z,78.70
2018-05-26T22:24:13.597Z,79.60
2018-05-26T22:26:41.073Z,79.90
2018-05-26T22:29:08.577Z,80.40
2018-05-26T22:31:36.819Z,81.10
2018-05-26T22:34:04.564Z,81.00
2018-05-26T22:36:32.055Z,80.80
2018-05-26T22:39:00.307Z,82.00
2018-05-26T22:41:27.793Z,82.00
2018-05-26T22:43:56.025Z,83.00
2018-05-26T22:46:23.517Z,82.90
2018-05-26T22:48:51.756Z,82.80
2018-05-26T22:51:19.237Z,82.70
2018-05-26T22:53:47.004Z,82.80
2018-05-26T22:56:15.254Z,82.80
2018-05-26T22:58:42.733Z,82.70
2018-05-26T23:01:10.209Z,82.90
2018-05-26T23:03:38.470Z,83.60
2018-05-26T23:06:06.755Z,83.80
2018-05-26T23:08:34.993Z,83.90
2018-05-26T23:11:02.481Z,83.90
2018-05-26T23:13:30.717Z,84.20
2018-05-26T23:15:58.287Z,84.10
2018-05-26T23:18:25.757Z,84.30
2018-05-26T23:20:54.013Z,84.90
2018-05-26T23:23:21.564Z,84.80
2018-05-26T23:25:49.037Z,85.30
2018-05-26T23:28:16.660Z,85.50
2018-05-26T23:30:44.169Z,86.70
2018-05-26T23:33:11.682Z,86.70
2018-05-26T23:35:39.152Z,86.40
2018-05-26T23:38:06.649Z,86.60
2018-05-26T23:40:34.122Z,87.00
2018-05-26T23:43:01.604Z,87.20
2018-05-26T23:45:29.158Z,87.40
2018-05-26T23:47:56.629Z,87.60
2018-05-26T23:50:24.139Z,88.00
2018-05-26T23:52:51.671Z,87.80
2018-05-26T23:55:20.057Z,88.60
2018-05-26T23:57:47.700Z,88.60
